Wawa Airport
CYXZ : now visible

Airfield :











YOU CAN JOIN US ON...

 
LOGIN :

Register | Disclaimer

   EN    FR    IT 

 









Legend :    VFR   Marginal VFR   IFR   Intensive IFR   Very Intensive IFR
Visi :
Ceiling :
>= 8 km
>= 3000ft
5 to 8 km
1000 to 3000 ft
1500m to 5 km
500 to 1000 ft
800 to 1500m
200 to 500 ft
< 800m
< 200 ft
Symbols :   Thunderstorms  Fog  Heavy snow  Heavy precipitations  Wind > 20 kt






- Airport Elevation : 942 ft
- IATA code : YXZ


CYXZ - Wawa

CURRENT METAR :
  • 231300Z 00000KT 12SM FEW150 M09/M09 A2973 RMK AC2 SLP088

EXPIRED METARs :
  • 231200Z 00000KT 15SM FEW100 M07/M07 A2975 RMK AC1 AC TR SLP093
  • 231100Z 16004KT 150V230 15SM SKC M04/M04 A2977 RMK SLP097

TAF TAF CYXZ
Valid from the 23 at 13:00 until the 24 at 00:00 UTC


231238Z 2313/2324 VRB03KT P6SM FEW002 FEW100
TEMPO 2313/2315 2SM BR BKN002 BKN100
FM231500 19008G18KT P6SM SCT007 BKN020
TEMPO 2315/2320 5SM -SN BR BKN007
BECMG 2316/2318 20012G25KT
FM232100 23012G25KT P6SM BKN020
TEMPO 2321/2324 5SM -SN BR BKN008 RMK NXT FCST BY 232000Z



MET'MAP, your aeronautical weather chart ! - Copyright ORBIFLY December 2007 - Disclaimer

ORBIFLY MET'MAP TEAM :

Programming & Development : Alexandra Zaïnal
Concept & original design : Baudouin d'Aumeries
Assistance for programming : Marc-Olivier Méhu
Technical & hardware support : Manuel Goepfert

Contact : metmap@orbifly.com




SOURCES & CREDITS :

   NOAA       Earth
Advisory